createdAt,value
2022-12-05T00:02:01.156Z,7.50
2022-12-05T00:04:29.345Z,7.50
2022-12-05T00:06:57.553Z,7.40
2022-12-05T00:09:25.594Z,7.30
2022-12-05T00:11:53.619Z,7.40
2022-12-05T00:14:22.999Z,7.50
2022-12-05T00:16:51.084Z,7.60
2022-12-05T00:19:19.058Z,7.50
2022-12-05T00:21:47.226Z,7.60
2022-12-05T00:24:17.630Z,7.60
2022-12-05T00:26:45.777Z,7.40
2022-12-05T00:29:13.892Z,7.40
2022-12-05T00:31:43.221Z,7.50
2022-12-05T00:34:11.671Z,7.50
2022-12-05T00:36:39.716Z,7.50
2022-12-05T00:39:09.105Z,7.50
2022-12-05T00:41:37.193Z,7.50
2022-12-05T00:44:06.105Z,7.50
2022-12-05T00:46:35.946Z,7.50
2022-12-05T00:49:06.948Z,7.50
2022-12-05T00:51:37.196Z,7.50
2022-12-05T00:54:07.732Z,7.50
2022-12-05T00:56:36.702Z,7.50
2022-12-05T00:59:05.715Z,7.50
2022-12-05T01:01:35.973Z,7.50
2022-12-05T01:04:06.994Z,7.50
2022-12-05T01:06:36.168Z,7.50
2022-12-05T01:09:05.292Z,7.50
2022-12-05T01:11:39.242Z,7.40
2022-12-05T01:14:09.171Z,7.40
2022-12-05T01:16:39.414Z,7.50
2022-12-05T01:19:12.680Z,7.50
2022-12-05T01:21:40.699Z,7.50
2022-12-05T01:24:09.516Z,7.50
2022-12-05T01:26:37.753Z,7.50
2022-12-05T01:29:05.989Z,7.50
2022-12-05T01:31:35.967Z,7.50
2022-12-05T01:34:06.455Z,7.50
2022-12-05T01:36:35.837Z,7.50
2022-12-05T01:39:04.619Z,7.50
2022-12-05T01:41:35.363Z,7.50
2022-12-05T01:44:06.088Z,7.50
2022-12-05T01:46:36.369Z,7.50
2022-12-05T01:49:08.928Z,7.40
2022-12-05T01:51:41.653Z,7.30
2022-12-05T01:54:11.386Z,7.10
2022-12-05T01:56:43.052Z,7.20
2022-12-05T01:59:12.646Z,7.30
2022-12-05T02:01:41.244Z,7.30
2022-12-05T02:04:10.621Z,7.40
2022-12-05T02:06:40.093Z,7.40
2022-12-05T02:09:08.391Z,7.40
2022-12-05T02:11:39.892Z,7.40
2022-12-05T02:14:18.814Z,7.40
2022-12-05T02:16:54.899Z,7.40
2022-12-05T02:19:49.501Z,7.40
2022-12-05T02:22:56.144Z,7.50
2022-12-05T02:25:43.426Z,7.50
2022-12-05T02:28:32.330Z,7.50
2022-12-05T02:31:08.280Z,7.40
2022-12-05T02:33:41.927Z,7.40
2022-12-05T02:36:16.896Z,7.40
2022-12-05T02:38:52.254Z,7.40
2022-12-05T02:41:28.078Z,7.50
2022-12-05T02:44:01.033Z,7.50
2022-12-05T02:46:33.217Z,7.50
2022-12-05T02:49:05.401Z,7.50
2022-12-05T02:51:37.879Z,7.40
2022-12-05T02:54:10.547Z,7.40
2022-12-05T02:56:41.623Z,7.40
2022-12-05T02:59:09.562Z,7.40
2022-12-05T03:01:39.104Z,7.50
2022-12-05T03:04:09.287Z,7.50
2022-12-05T03:06:43.171Z,7.50
2022-12-05T03:09:14.671Z,7.50
2022-12-05T03:11:46.172Z,7.50
2022-12-05T03:14:21.607Z,7.50
2022-12-05T03:16:54.002Z,7.60
2022-12-05T03:19:27.409Z,7.60
2022-12-05T03:22:00.820Z,7.50
2022-12-05T03:24:29.981Z,7.60
2022-12-05T03:27:05.833Z,7.60
2022-12-05T03:29:41.479Z,7.50
2022-12-05T03:32:16.694Z,7.50
2022-12-05T03:34:53.880Z,7.50
2022-12-05T03:37:28.543Z,7.50
2022-12-05T03:40:05.614Z,7.60
2022-12-05T03:42:38.067Z,7.50
2022-12-05T03:45:11.442Z,7.60
2022-12-05T03:47:50.080Z,7.50
2022-12-05T03:50:23.553Z,7.40
2022-12-05T03:53:19.026Z,7.40
2022-12-05T03:55:52.186Z,7.50
2022-12-05T03:58:27.294Z,7.50
2022-12-05T04:00:57.936Z,7.50
2022-12-05T04:03:39.624Z,7.50
2022-12-05T04:06:14.059Z,7.50
2022-12-05T04:08:48.441Z,7.60
2022-12-05T04:11:20.265Z,7.60
2022-12-05T04:13:51.957Z,7.50
2022-12-05T04:16:42.530Z,7.50
2022-12-05T04:19:19.404Z,7.50
2022-12-05T04:21:50.511Z,7.50
2022-12-05T04:24:40.184Z,7.50
2022-12-05T04:27:19.426Z,7.50
2022-12-05T04:29:54.016Z,7.50
2022-12-05T04:32:28.655Z,7.50
2022-12-05T04:35:10.563Z,7.50
2022-12-05T04:37:43.132Z,7.50
2022-12-05T04:40:15.891Z,7.50
2022-12-05T04:42:46.238Z,7.50
2022-12-05T04:45:18.873Z,7.50
2022-12-05T04:47:51.074Z,7.50
2022-12-05T04:50:22.130Z,7.50
2022-12-05T04:52:53.999Z,7.50
2022-12-05T04:55:26.151Z,7.50
2022-12-05T04:58:03.962Z,7.50
2022-12-05T05:00:36.022Z,7.50
2022-12-05T05:03:09.931Z,7.50
2022-12-05T05:05:40.625Z,7.50
2022-12-05T05:08:19.225Z,7.50
2022-12-05T05:10:55.858Z,7.50
2022-12-05T05:13:24.018Z,7.50
2022-12-05T05:15:52.154Z,7.50
2022-12-05T05:18:20.275Z,7.50
2022-12-05T05:20:50.208Z,7.50
2022-12-05T05:23:18.191Z,7.50
2022-12-05T05:25:46.124Z,7.50
2022-12-05T05:28:14.075Z,7.50
2022-12-05T05:30:42.020Z,7.50
2022-12-05T05:33:12.440Z,7.50
2022-12-05T05:35:40.959Z,7.50
2022-12-05T05:38:10.294Z,7.50
2022-12-05T05:40:38.440Z,7.50
2022-12-05T05:43:06.476Z,7.50
2022-12-05T05:45:34.471Z,7.50
2022-12-05T05:48:02.636Z,7.50
2022-12-05T05:50:30.609Z,7.50
2022-12-05T05:52:58.965Z,7.50
2022-12-05T05:55:28.322Z,7.50
2022-12-05T05:57:56.519Z,7.50
2022-12-05T06:00:24.769Z,7.50
2022-12-05T06:02:52.984Z,7.50
2022-12-05T06:05:21.049Z,7.50
2022-12-05T06:07:49.104Z,7.50
2022-12-05T06:10:17.166Z,7.50
2022-12-05T06:12:46.926Z,7.50
2022-12-05T06:15:14.949Z,7.50
2022-12-05T06:17:43.212Z,7.60
2022-12-05T06:20:11.854Z,7.50
2022-12-05T06:22:39.943Z,7.60
2022-12-05T06:25:09.198Z,7.60
2022-12-05T06:27:37.420Z,7.60
2022-12-05T06:30:11.022Z,7.60
2022-12-05T06:32:39.078Z,7.60
2022-12-05T06:35:15.280Z,7.60
2022-12-05T06:37:43.701Z,7.60
2022-12-05T06:40:12.700Z,7.60
2022-12-05T06:42:40.871Z,7.60
2022-12-05T06:45:11.502Z,7.60
2022-12-05T06:47:39.511Z,7.60
2022-12-05T06:50:09.025Z,7.60
2022-12-05T06:52:37.157Z,7.60
2022-12-05T06:55:05.978Z,7.60
2022-12-05T06:57:33.986Z,7.60
2022-12-05T07:00:16.054Z,7.60
2022-12-05T07:02:45.604Z,7.70
2022-12-05T07:05:14.020Z,7.70
2022-12-05T07:07:42.009Z,7.70
2022-12-05T07:10:10.243Z,7.70
2022-12-05T07:12:38.236Z,7.70
2022-12-05T07:15:07.120Z,7.70
2022-12-05T07:17:37.588Z,7.70
2022-12-05T07:20:10.276Z,7.70
2022-12-05T07:22:38.480Z,7.60
2022-12-05T07:25:07.367Z,7.50
2022-12-05T07:27:35.333Z,7.60
2022-12-05T07:30:03.324Z,7.60
2022-12-05T07:32:33.401Z,7.70
2022-12-05T07:35:01.543Z,7.70
2022-12-05T07:37:31.799Z,7.70
2022-12-05T07:39:59.976Z,7.70
2022-12-05T07:42:28.186Z,7.70
2022-12-05T07:44:56.271Z,7.70
2022-12-05T07:47:24.305Z,7.70
2022-12-05T07:49:52.435Z,7.70
2022-12-05T07:52:20.641Z,7.70
2022-12-05T07:54:49.957Z,7.70
2022-12-05T07:57:18.032Z,7.70
2022-12-05T07:59:45.962Z,7.50
2022-12-05T08:02:14.023Z,7.50
2022-12-05T08:04:42.077Z,7.50
2022-12-05T08:07:11.559Z,7.40
2022-12-05T08:09:39.544Z,7.40
2022-12-05T08:12:09.327Z,7.40
2022-12-05T08:14:37.568Z,7.30
2022-12-05T08:17:05.754Z,7.30
2022-12-05T08:19:33.766Z,7.30
2022-12-05T08:22:01.789Z,7.30
2022-12-05T08:24:29.746Z,7.30
2022-12-05T08:26:57.682Z,7.40
2022-12-05T08:29:27.081Z,7.40
2022-12-05T08:31:55.150Z,7.40
2022-12-05T08:34:23.101Z,7.40
2022-12-05T08:36:51.240Z,7.40
2022-12-05T08:39:20.708Z,7.50
2022-12-05T08:41:49.368Z,7.60
2022-12-05T08:44:18.741Z,7.60
2022-12-05T08:46:50.390Z,7.50
2022-12-05T08:49:19.349Z,7.50
2022-12-05T08:51:47.626Z,7.50
2022-12-05T08:54:16.041Z,7.60
2022-12-05T08:56:44.156Z,7.70
2022-12-05T08:59:12.128Z,7.70
2022-12-05T09:01:42.305Z,7.70
2022-12-05T09:04:12.469Z,7.80
2022-12-05T09:06:41.149Z,7.90
2022-12-05T09:09:11.685Z,7.90
2022-12-05T09:11:44.119Z,8.00
2022-12-05T09:14:12.147Z,8.00
2022-12-05T09:16:40.535Z,8.00
2022-12-05T09:19:15.421Z,8.00
2022-12-05T09:21:44.368Z,8.10
2022-12-05T09:24:13.479Z,8.10
2022-12-05T09:26:42.227Z,8.10
2022-12-05T09:29:16.099Z,8.10
2022-12-05T09:31:45.135Z,8.10
2022-12-05T09:34:15.382Z,8.20
2022-12-05T09:36:44.334Z,8.20
2022-12-05T09:39:12.739Z,8.20
2022-12-05T09:42:08.936Z,8.30
2022-12-05T09:44:58.105Z,8.30
2022-12-05T09:47:35.859Z,8.30
2022-12-05T09:50:15.507Z,8.30
2022-12-05T09:52:47.371Z,8.30
2022-12-05T09:55:17.185Z,8.30
2022-12-05T09:57:49.497Z,8.30
2022-12-05T10:00:18.636Z,8.40
2022-12-05T10:02:54.492Z,8.30
2022-12-05T10:05:29.008Z,8.30
2022-12-05T10:08:07.732Z,8.40
2022-12-05T10:10:45.528Z,8.40
2022-12-05T10:13:37.016Z,8.40
2022-12-05T10:16:10.458Z,8.40
2022-12-05T10:18:42.764Z,8.50
2022-12-05T10:21:18.618Z,8.40
2022-12-05T10:23:58.841Z,8.40
2022-12-05T10:26:31.451Z,8.50
2022-12-05T10:29:07.073Z,8.50
2022-12-05T10:31:38.621Z,8.50
2022-12-05T10:34:16.111Z,8.40
2022-12-05T10:36:55.919Z,8.50
2022-12-05T10:39:24.279Z,8.50
2022-12-05T10:41:52.518Z,8.50
2022-12-05T10:44:20.975Z,8.50
2022-12-05T10:46:49.784Z,8.50
2022-12-05T10:49:20.962Z,8.60
2022-12-05T10:51:51.311Z,8.60
2022-12-05T10:54:22.130Z,8.60
2022-12-05T10:56:52.203Z,8.70
2022-12-05T10:59:22.092Z,8.80
2022-12-05T11:01:53.674Z,8.90
2022-12-05T11:04:30.176Z,9.00
2022-12-05T11:07:02.312Z,9.00
2022-12-05T11:09:32.401Z,9.10
2022-12-05T11:12:13.918Z,9.10
2022-12-05T11:14:54.191Z,9.10
2022-12-05T11:17:27.160Z,9.10
2022-12-05T11:19:55.128Z,9.10
2022-12-05T11:22:33.042Z,9.10
2022-12-05T11:25:01.318Z,9.00
2022-12-05T11:27:31.904Z,9.00
2022-12-05T11:30:02.985Z,9.00
2022-12-05T11:32:33.778Z,9.00
2022-12-05T11:35:19.311Z,9.00
2022-12-05T11:37:53.835Z,8.90
2022-12-05T11:40:32.714Z,8.90
2022-12-05T11:43:29.026Z,8.90
2022-12-05T11:46:11.615Z,8.90
2022-12-05T11:48:57.754Z,8.90
2022-12-05T11:51:37.884Z,8.90
2022-12-05T11:54:56.275Z,8.90
2022-12-05T11:57:20.664Z,9.00
2022-12-05T12:00:09.009Z,9.00
2022-12-05T12:03:06.795Z,9.00
2022-12-05T12:05:40.376Z,9.00
2022-12-05T12:08:20.189Z,9.00
2022-12-05T12:10:56.964Z,9.00
2022-12-05T12:13:36.623Z,8.90
2022-12-05T12:16:16.278Z,8.90
2022-12-05T12:19:19.962Z,8.90
2022-12-05T12:22:01.182Z,9.00
2022-12-05T12:24:39.060Z,9.00
2022-12-05T12:27:17.499Z,9.10
2022-12-05T12:30:02.051Z,9.10
2022-12-05T12:32:39.708Z,9.10
2022-12-05T12:35:24.847Z,9.10
2022-12-05T12:38:08.288Z,9.10
2022-12-05T12:40:44.695Z,9.00
2022-12-05T12:43:52.638Z,8.90
2022-12-05T12:46:25.902Z,8.90
2022-12-05T12:49:21.695Z,8.80
2022-12-05T12:51:54.744Z,8.90
2022-12-05T12:55:02.217Z,8.90
2022-12-05T12:57:30.852Z,8.90
2022-12-05T13:00:14.276Z,9.00
2022-12-05T13:02:48.342Z,9.00
2022-12-05T13:05:26.329Z,9.00
2022-12-05T13:07:59.113Z,9.10
2022-12-05T13:10:33.076Z,9.20
2022-12-05T13:13:01.876Z,9.20
2022-12-05T13:15:37.933Z,9.30
2022-12-05T13:18:07.206Z,9.30
2022-12-05T13:20:37.091Z,9.20
2022-12-05T13:23:08.493Z,9.30
2022-12-05T13:25:40.037Z,9.20
2022-12-05T13:28:25.880Z,9.20
2022-12-05T13:31:01.553Z,9.20
2022-12-05T13:33:33.846Z,9.10
2022-12-05T13:36:25.575Z,9.10
2022-12-05T13:39:19.318Z,9.00
2022-12-05T13:42:07.381Z,9.00
2022-12-05T13:44:39.873Z,9.00
2022-12-05T13:47:22.604Z,8.90
2022-12-05T13:49:55.707Z,8.90
2022-12-05T13:52:29.953Z,8.90
2022-12-05T13:55:02.320Z,8.90
2022-12-05T13:57:49.421Z,8.90
2022-12-05T14:00:37.136Z,8.90
2022-12-05T14:03:18.164Z,8.90
2022-12-05T14:05:48.544Z,8.80
2022-12-05T14:08:58.531Z,8.80
2022-12-05T14:11:26.745Z,8.70
2022-12-05T14:14:00.721Z,8.70
2022-12-05T14:16:45.936Z,8.80
2022-12-05T14:19:33.882Z,8.80
2022-12-05T14:22:14.996Z,8.80
2022-12-05T14:24:55.005Z,8.80
2022-12-05T14:27:32.746Z,8.80
2022-12-05T14:30:07.806Z,8.80
2022-12-05T14:32:38.593Z,8.90
2022-12-05T14:35:14.468Z,8.90
2022-12-05T14:37:49.860Z,8.80
2022-12-05T14:40:25.846Z,8.80
2022-12-05T14:42:57.027Z,8.80
2022-12-05T14:45:29.918Z,8.80
2022-12-05T14:47:59.465Z,8.80
2022-12-05T14:50:43.431Z,8.80
2022-12-05T14:53:27.263Z,8.80
2022-12-05T14:56:00.885Z,8.80
2022-12-05T14:58:36.326Z,8.80
2022-12-05T15:01:09.027Z,8.80
2022-12-05T15:03:42.021Z,8.80
2022-12-05T15:06:17.894Z,8.80
2022-12-05T15:08:50.622Z,8.80
2022-12-05T15:11:29.146Z,8.80
2022-12-05T15:14:18.085Z,8.90
2022-12-05T15:16:50.140Z,8.80
2022-12-05T15:19:21.535Z,8.80
2022-12-05T15:21:56.767Z,8.80
2022-12-05T15:24:25.150Z,8.80
2022-12-05T15:26:54.875Z,8.80
2022-12-05T15:29:27.987Z,8.70
2022-12-05T15:31:58.090Z,8.70
2022-12-05T15:34:30.341Z,8.60
2022-12-05T15:37:05.562Z,8.60
2022-12-05T15:39:52.763Z,8.60
2022-12-05T15:42:26.087Z,8.70
2022-12-05T15:45:16.093Z,8.60
2022-12-05T15:47:45.724Z,8.60
2022-12-05T15:50:15.287Z,8.60
2022-12-05T15:52:50.819Z,8.60
2022-12-05T15:55:23.310Z,8.50
2022-12-05T15:57:55.750Z,8.50
2022-12-05T16:00:26.088Z,8.60
2022-12-05T16:03:03.652Z,8.60
2022-12-05T16:05:35.412Z,8.50
2022-12-05T16:08:06.145Z,8.50
2022-12-05T16:10:35.558Z,8.50
2022-12-05T16:13:07.068Z,8.50
2022-12-05T16:15:35.550Z,8.50
2022-12-05T16:18:06.072Z,8.50
2022-12-05T16:20:35.862Z,8.50
2022-12-05T16:23:07.394Z,8.50
2022-12-05T16:25:37.026Z,8.50
2022-12-05T16:28:17.165Z,8.50
2022-12-05T16:30:56.752Z,8.50
2022-12-05T16:33:25.079Z,8.50
2022-12-05T16:35:53.338Z,8.50
2022-12-05T16:38:25.915Z,8.50
2022-12-05T16:40:59.310Z,8.50
2022-12-05T16:43:41.768Z,8.50
2022-12-05T16:46:43.902Z,8.50
2022-12-05T16:49:26.743Z,8.50
2022-12-05T16:52:00.020Z,8.50
2022-12-05T16:54:29.979Z,8.50
2022-12-05T16:56:59.490Z,8.50
2022-12-05T16:59:33.194Z,8.50
2022-12-05T17:02:02.046Z,8.40
2022-12-05T17:04:31.432Z,8.50
2022-12-05T17:06:59.541Z,8.50
2022-12-05T17:09:28.893Z,8.50
2022-12-05T17:12:02.522Z,8.50
2022-12-05T17:14:30.595Z,8.40
2022-12-05T17:17:01.000Z,8.40
2022-12-05T17:19:29.740Z,8.50
2022-12-05T17:21:57.781Z,8.50
2022-12-05T17:24:28.338Z,8.50
2022-12-05T17:26:57.638Z,8.40
2022-12-05T17:29:25.676Z,8.30
2022-12-05T17:31:54.196Z,8.40
2022-12-05T17:34:22.200Z,8.30
2022-12-05T17:36:50.217Z,8.30
2022-12-05T17:39:19.626Z,8.30
2022-12-05T17:41:50.393Z,8.20
2022-12-05T17:44:19.757Z,8.20
2022-12-05T17:46:47.771Z,8.20
2022-12-05T17:49:17.925Z,8.20
2022-12-05T17:52:19.941Z,8.20
2022-12-05T17:54:34.412Z,8.30
2022-12-05T17:57:02.378Z,8.30
2022-12-05T17:59:31.797Z,8.30
2022-12-05T18:01:59.756Z,8.30
2022-12-05T18:04:27.813Z,8.30
2022-12-05T18:06:55.754Z,8.30
2022-12-05T18:09:24.053Z,8.30
2022-12-05T18:11:52.005Z,8.30
2022-12-05T18:14:20.012Z,8.30
2022-12-05T18:16:49.725Z,8.30
2022-12-05T18:19:17.744Z,8.30
2022-12-05T18:24:18.660Z,8.30
2022-12-05T18:26:47.048Z,8.30
2022-12-05T18:29:15.085Z,8.30
2022-12-05T18:31:43.180Z,8.30
2022-12-05T18:34:12.609Z,8.30
2022-12-05T18:36:41.004Z,8.30
2022-12-05T18:39:15.641Z,8.30
2022-12-05T18:41:43.637Z,8.40
2022-12-05T18:44:11.907Z,8.40
2022-12-05T18:46:39.940Z,8.40
2022-12-05T18:49:07.977Z,8.40
2022-12-05T18:51:37.353Z,8.40
2022-12-05T18:54:05.479Z,8.40
2022-12-05T18:56:35.644Z,8.40
2022-12-05T18:59:06.026Z,8.30
2022-12-05T19:01:37.496Z,8.40
2022-12-05T19:04:07.625Z,8.40
2022-12-05T19:06:39.786Z,8.30
2022-12-05T19:09:09.757Z,8.30
2022-12-05T19:11:38.617Z,8.30
2022-12-05T19:14:08.971Z,8.30
2022-12-05T19:16:37.318Z,8.30
2022-12-05T19:19:06.971Z,8.20
2022-12-05T19:21:37.623Z,8.20
2022-12-05T19:24:08.706Z,8.20
2022-12-05T19:26:37.128Z,8.30
2022-12-05T19:29:05.266Z,8.20
2022-12-05T19:31:35.801Z,8.30
2022-12-05T19:34:08.678Z,8.30
2022-12-05T19:36:39.501Z,8.30
2022-12-05T19:39:12.885Z,8.30
2022-12-05T19:41:40.801Z,8.30
2022-12-05T19:44:09.641Z,8.30
2022-12-05T19:46:38.587Z,8.30
2022-12-05T19:49:08.653Z,8.30
2022-12-05T19:51:38.499Z,7.90
2022-12-05T19:54:07.723Z,7.60
2022-12-05T19:56:37.218Z,7.50
2022-12-05T19:59:06.735Z,7.40
2022-12-05T20:01:36.243Z,7.20
2022-12-05T20:04:06.719Z,7.10
2022-12-05T20:06:38.123Z,7.10
2022-12-05T20:09:07.502Z,7.00
2022-12-05T20:11:35.926Z,7.00
2022-12-05T20:14:04.104Z,7.00
2022-12-05T20:16:33.704Z,6.90
2022-12-05T20:19:02.188Z,6.90
2022-12-05T20:21:32.407Z,6.80
2022-12-05T20:24:03.058Z,6.80
2022-12-05T20:26:32.432Z,6.80
2022-12-05T20:29:01.358Z,6.90
2022-12-05T20:31:31.160Z,7.10
2022-12-05T20:34:00.522Z,7.20
2022-12-05T20:36:30.279Z,7.30
2022-12-05T20:38:59.749Z,7.40
2022-12-05T20:41:30.053Z,7.40
2022-12-05T20:44:00.131Z,7.50
2022-12-05T20:46:28.967Z,7.50
2022-12-05T20:48:57.344Z,7.60
2022-12-05T20:51:27.663Z,7.60
2022-12-05T20:53:56.744Z,7.60
2022-12-05T20:56:26.361Z,7.60
2022-12-05T20:58:57.548Z,7.70
2022-12-05T21:01:27.430Z,7.60
2022-12-05T21:03:56.267Z,7.60
2022-12-05T21:06:26.919Z,7.60
2022-12-05T21:08:55.473Z,7.50
2022-12-05T21:11:23.786Z,7.50
2022-12-05T21:13:52.275Z,7.40
2022-12-05T21:16:23.046Z,7.40
2022-12-05T21:18:51.808Z,7.20
2022-12-05T21:21:21.657Z,7.10
2022-12-05T21:23:54.750Z,7.20
2022-12-05T21:26:23.666Z,7.20
2022-12-05T21:28:51.957Z,7.30
2022-12-05T21:31:22.721Z,7.20
2022-12-05T21:33:55.442Z,7.20
2022-12-05T21:36:24.525Z,7.20
2022-12-05T21:38:56.299Z,7.20
2022-12-05T21:41:24.961Z,7.20
2022-12-05T21:43:55.345Z,7.20
2022-12-05T21:46:26.017Z,7.10
2022-12-05T21:48:54.216Z,7.10
2022-12-05T21:51:22.982Z,7.10
2022-12-05T21:53:52.280Z,7.10
2022-12-05T21:56:22.739Z,7.00
2022-12-05T21:58:50.975Z,7.00
2022-12-05T22:01:22.957Z,7.00
2022-12-05T22:03:54.537Z,7.00
2022-12-05T22:06:22.734Z,6.90
2022-12-05T22:08:50.701Z,6.90
2022-12-05T22:11:20.832Z,6.90
2022-12-05T22:13:49.834Z,7.00
2022-12-05T22:16:19.045Z,6.90
2022-12-05T22:18:47.517Z,6.90
2022-12-05T22:21:18.296Z,7.00
2022-12-05T22:23:46.734Z,7.00
2022-12-05T22:26:17.152Z,7.00
2022-12-05T22:28:45.611Z,6.60
2022-12-05T22:31:15.892Z,6.10
2022-12-05T22:33:44.109Z,6.00
2022-12-05T22:36:14.637Z,6.20
2022-12-05T22:38:47.291Z,6.40
2022-12-05T22:41:16.623Z,6.50
2022-12-05T22:43:47.346Z,6.50
2022-12-05T22:46:17.773Z,6.50
2022-12-05T22:48:46.912Z,6.60
2022-12-05T22:51:15.779Z,6.60
2022-12-05T22:53:45.441Z,6.30
2022-12-05T22:56:15.549Z,6.40
2022-12-05T22:58:44.431Z,6.30
2022-12-05T23:01:16.685Z,6.30
2022-12-05T23:03:46.082Z,6.50
2022-12-05T23:06:15.835Z,6.50
2022-12-05T23:08:47.756Z,6.50
2022-12-05T23:11:17.082Z,6.50
2022-12-05T23:13:45.967Z,6.40
2022-12-05T23:16:15.890Z,6.50
2022-12-05T23:18:52.812Z,6.50
2022-12-05T23:21:23.028Z,6.40
2022-12-05T23:23:54.895Z,6.10
2022-12-05T23:26:24.770Z,6.20
2022-12-05T23:28:53.390Z,6.30
2022-12-05T23:31:22.010Z,6.30
2022-12-05T23:33:51.591Z,6.30
2022-12-05T23:36:20.027Z,6.30
2022-12-05T23:38:48.284Z,6.30
2022-12-05T23:41:19.263Z,6.30
2022-12-05T23:43:48.282Z,6.30
2022-12-05T23:46:18.947Z,6.30
2022-12-05T23:48:47.002Z,6.30
2022-12-05T23:51:17.084Z,6.20
2022-12-05T23:53:47.222Z,6.20
2022-12-05T23:56:19.684Z,6.20
2022-12-05T23:58:47.994Z,6.20
